HFY381 LFBO-LPBJ
Flight info
| Callsign | HFY381 |
|---|---|
| Flight time | 1h 28m |
| Altitude | 41000 |
| Route | LMB DCT SSN P181 NEA L14 ADINO/N0367F230 L14 ELVAR DCT MAXED DCT INLED |
| Aircraft | A388/J-SADE2E3FGHIJ3J4J5M1RWXYZ/LB1D1 |
Departure
| Time | 2026-05-04 22:25 |
|---|---|
| Airport | Toulouse-Blagnac Airport (LFBO) |
Arrival
| Time | 2026-05-04 23:54 |
|---|---|
| Airport | Beja Airport / Airbase (LPBJ) |
| Time | Latitude | Longitude | Altitude | Speed | Heading |
|---|---|---|---|---|---|
| 2026-05-04 21:42 | 43.65291 | 1.35487 | 499 ft | 0 kts | 82° |
| 2026-05-04 22:03 | 43.65291 | 1.35478 | 499 ft | 4 kts | 83° |
| 2026-05-04 22:04 | 43.65289 | 1.35441 | 499 ft | 4 kts | 86° |
| 2026-05-04 22:04 | 43.65287 | 1.35410 | 499 ft | 3 kts | 85° |
| 2026-05-04 22:04 | 43.65289 | 1.35379 | 499 ft | 4 kts | 112° |
| 2026-05-04 22:04 | 43.65301 | 1.35357 | 499 ft | 4 kts | 147° |
| 2026-05-04 22:05 | 43.65322 | 1.35343 | 499 ft | 4 kts | 158° |
| 2026-05-04 22:05 | 43.65347 | 1.35329 | 499 ft | 4 kts | 158° |
| 2026-05-04 22:05 | 43.65352 | 1.35327 | 499 ft | 1 kts | 158° |
| 2026-05-04 22:08 | 43.65343 | 1.35332 | 499 ft | 4 kts | 158° |
| 2026-05-04 22:08 | 43.65307 | 1.35350 | 499 ft | 7 kts | 165° |
| 2026-05-04 22:08 | 43.65252 | 1.35362 | 499 ft | 9 kts | 173° |
| 2026-05-04 22:08 | 43.65188 | 1.35372 | 499 ft | 10 kts | 174° |
| 2026-05-04 22:09 | 43.65115 | 1.35382 | 499 ft | 11 kts | 174° |
| 2026-05-04 22:09 | 43.65036 | 1.35392 | 499 ft | 12 kts | 174° |
| 2026-05-04 22:09 | 43.64951 | 1.35404 | 499 ft | 13 kts | 174° |
| 2026-05-04 22:09 | 43.64866 | 1.35415 | 499 ft | 12 kts | 174° |
| 2026-05-04 22:10 | 43.64781 | 1.35413 | 499 ft | 12 kts | 187° |
| 2026-05-04 22:10 | 43.64697 | 1.35396 | 499 ft | 12 kts | 188° |
| 2026-05-04 22:10 | 43.64612 | 1.35378 | 499 ft | 12 kts | 189° |
| 2026-05-04 22:10 | 43.64528 | 1.35359 | 499 ft | 12 kts | 189° |
| 2026-05-04 22:11 | 43.64445 | 1.35354 | 499 ft | 12 kts | 166° |
| 2026-05-04 22:11 | 43.64370 | 1.35415 | 499 ft | 15 kts | 142° |
| 2026-05-04 22:11 | 43.64279 | 1.35511 | 499 ft | 17 kts | 142° |
| 2026-05-04 22:11 | 43.64181 | 1.35614 | 499 ft | 18 kts | 142° |
| 2026-05-04 22:12 | 43.64079 | 1.35722 | 499 ft | 19 kts | 143° |
| 2026-05-04 22:12 | 43.63973 | 1.35829 | 499 ft | 19 kts | 143° |
| 2026-05-04 22:12 | 43.63865 | 1.35939 | 499 ft | 18 kts | 143° |
| 2026-05-04 22:12 | 43.63765 | 1.36042 | 499 ft | 16 kts | 143° |
| 2026-05-04 22:13 | 43.63750 | 1.36059 | 499 ft | 0 kts | 143° |
| 2026-05-04 22:15 | 43.63741 | 1.36068 | 499 ft | 5 kts | 142° |
| 2026-05-04 22:15 | 43.63689 | 1.36123 | 499 ft | 13 kts | 143° |
| 2026-05-04 22:16 | 43.63612 | 1.36204 | 499 ft | 15 kts | 142° |
| 2026-05-04 22:16 | 43.63525 | 1.36295 | 499 ft | 16 kts | 142° |
| 2026-05-04 22:16 | 43.63430 | 1.36394 | 499 ft | 18 kts | 143° |
| 2026-05-04 22:16 | 43.63325 | 1.36503 | 499 ft | 19 kts | 143° |
| 2026-05-04 22:17 | 43.63214 | 1.36617 | 499 ft | 21 kts | 143° |
| 2026-05-04 22:17 | 43.63094 | 1.36739 | 499 ft | 22 kts | 143° |
| 2026-05-04 22:17 | 43.62968 | 1.36868 | 499 ft | 23 kts | 143° |
| 2026-05-04 22:17 | 43.62856 | 1.36984 | 499 ft | 20 kts | 143° |
| 2026-05-04 22:18 | 43.62744 | 1.37101 | 499 ft | 16 kts | 143° |
| 2026-05-04 22:18 | 43.62647 | 1.37208 | 499 ft | 20 kts | 141° |
| 2026-05-04 22:18 | 43.62531 | 1.37331 | 499 ft | 21 kts | 143° |
| 2026-05-04 22:18 | 43.62418 | 1.37446 | 499 ft | 21 kts | 143° |
| 2026-05-04 22:19 | 43.62294 | 1.37573 | 499 ft | 23 kts | 143° |
| 2026-05-04 22:19 | 43.62177 | 1.37695 | 499 ft | 19 kts | 143° |
| 2026-05-04 22:19 | 43.62074 | 1.37800 | 499 ft | 20 kts | 143° |
| 2026-05-04 22:19 | 43.61960 | 1.37920 | 499 ft | 21 kts | 143° |
| 2026-05-04 22:20 | 43.61862 | 1.38021 | 499 ft | 14 kts | 143° |
| 2026-05-04 22:20 | 43.61784 | 1.38103 | 499 ft | 12 kts | 142° |
| 2026-05-04 22:20 | 43.61722 | 1.38167 | 499 ft | 12 kts | 154° |
| 2026-05-04 22:20 | 43.61651 | 1.38155 | 499 ft | 9 kts | 222° |
| 2026-05-04 22:21 | 43.61643 | 1.38143 | 499 ft | 0 kts | 234° |
| 2026-05-04 22:22 | 43.61637 | 1.38131 | 499 ft | 4 kts | 234° |
| 2026-05-04 22:22 | 43.61612 | 1.38082 | 499 ft | 8 kts | 234° |
| 2026-05-04 22:22 | 43.61596 | 1.38042 | 499 ft | 3 kts | 265° |
| 2026-05-04 22:22 | 43.61598 | 1.38009 | 499 ft | 5 kts | 287° |
| 2026-05-04 22:23 | 43.61619 | 1.37962 | 499 ft | 6 kts | 317° |
| 2026-05-04 22:23 | 43.61634 | 1.37946 | 499 ft | 0 kts | 324° |
| 2026-05-04 22:25 | 43.61662 | 1.37918 | 499 ft | 33 kts | 324° |
| 2026-05-04 22:25 | 43.62155 | 1.37404 | 499 ft | 138 kts | 322° |
| 2026-05-04 22:25 | 43.63078 | 1.36514 | 906 ft | 173 kts | 322° |
| 2026-05-04 22:25 | 43.64108 | 1.35516 | 1514 ft | 185 kts | 321° |
| 2026-05-04 22:26 | 43.65156 | 1.34395 | 2127 ft | 196 kts | 318° |
| 2026-05-04 22:26 | 43.66247 | 1.33119 | 2400 ft | 215 kts | 317° |
| 2026-05-04 22:26 | 43.67451 | 1.31675 | 2627 ft | 246 kts | 317° |
| 2026-05-04 22:26 | 43.68817 | 1.30083 | 3180 ft | 267 kts | 318° |
| 2026-05-04 22:27 | 43.70135 | 1.28267 | 4213 ft | 264 kts | 309° |
| 2026-05-04 22:27 | 43.71226 | 1.26236 | 4702 ft | 261 kts | 303° |
| 2026-05-04 22:27 | 43.72214 | 1.24142 | 4928 ft | 262 kts | 302° |
| 2026-05-04 22:27 | 43.73242 | 1.22043 | 5019 ft | 264 kts | 304° |
| 2026-05-04 22:28 | 43.74309 | 1.20010 | 5354 ft | 265 kts | 306° |
| 2026-05-04 22:28 | 43.75427 | 1.17968 | 6252 ft | 266 kts | 306° |
| 2026-05-04 22:28 | 43.76558 | 1.15943 | 7337 ft | 268 kts | 306° |
| 2026-05-04 22:28 | 43.77351 | 1.13617 | 8270 ft | 271 kts | 276° |
| 2026-05-04 22:29 | 43.77087 | 1.11068 | 9343 ft | 272 kts | 244° |
| 2026-05-04 22:29 | 43.75873 | 1.09058 | 10330 ft | 278 kts | 220° |
| 2026-05-04 22:29 | 43.74261 | 1.07415 | 10812 ft | 299 kts | 215° |
| 2026-05-04 22:29 | 43.72461 | 1.05770 | 11145 ft | 321 kts | 213° |
| 2026-05-04 22:30 | 43.70553 | 1.04070 | 11856 ft | 328 kts | 213° |
| 2026-05-04 22:30 | 43.68625 | 1.02360 | 12769 ft | 330 kts | 213° |
| 2026-05-04 22:30 | 43.66677 | 1.00634 | 13629 ft | 334 kts | 213° |
| 2026-05-04 22:30 | 43.64751 | 0.98809 | 14404 ft | 337 kts | 219° |
| 2026-05-04 22:31 | 43.63135 | 0.96453 | 15158 ft | 342 kts | 235° |
| 2026-05-04 22:31 | 43.62173 | 0.93432 | 15924 ft | 349 kts | 252° |
| 2026-05-04 22:31 | 43.61591 | 0.90190 | 16624 ft | 354 kts | 255° |
| 2026-05-04 22:31 | 43.61064 | 0.86845 | 17347 ft | 358 kts | 255° |
| 2026-05-04 22:32 | 43.60550 | 0.83455 | 18075 ft | 362 kts | 255° |
| 2026-05-04 22:32 | 43.60030 | 0.80030 | 18713 ft | 366 kts | 255° |
| 2026-05-04 22:32 | 43.59504 | 0.76584 | 19383 ft | 367 kts | 255° |
| 2026-05-04 22:32 | 43.58970 | 0.73124 | 20005 ft | 370 kts | 255° |
| 2026-05-04 22:33 | 43.58415 | 0.69647 | 20638 ft | 372 kts | 255° |
| 2026-05-04 22:33 | 43.57849 | 0.66153 | 21259 ft | 375 kts | 254° |
| 2026-05-04 22:33 | 43.57283 | 0.62670 | 21861 ft | 378 kts | 254° |
| 2026-05-04 22:33 | 43.56708 | 0.59124 | 22478 ft | 380 kts | 254° |
| 2026-05-04 22:34 | 43.56127 | 0.55549 | 23076 ft | 383 kts | 254° |
| 2026-05-04 22:34 | 43.55543 | 0.51956 | 23679 ft | 385 kts | 254° |
| 2026-05-04 22:34 | 43.54955 | 0.48338 | 24180 ft | 388 kts | 254° |
| 2026-05-04 22:34 | 43.54362 | 0.44699 | 24671 ft | 391 kts | 254° |
| 2026-05-04 22:35 | 43.53763 | 0.41030 | 25204 ft | 393 kts | 254° |
| 2026-05-04 22:35 | 43.53160 | 0.37345 | 25722 ft | 396 kts | 254° |
| 2026-05-04 22:35 | 43.52551 | 0.33634 | 26264 ft | 399 kts | 254° |
| 2026-05-04 22:35 | 43.51935 | 0.29882 | 26857 ft | 402 kts | 254° |
| 2026-05-04 22:36 | 43.51314 | 0.26115 | 27447 ft | 405 kts | 254° |
| 2026-05-04 22:36 | 43.50687 | 0.22320 | 28061 ft | 408 kts | 254° |
| 2026-05-04 22:36 | 43.50054 | 0.18494 | 28670 ft | 411 kts | 254° |
| 2026-05-04 22:36 | 43.49415 | 0.14646 | 29284 ft | 414 kts | 254° |
| 2026-05-04 22:37 | 43.48779 | 0.10816 | 29897 ft | 417 kts | 254° |
| 2026-05-04 22:37 | 43.48127 | 0.06903 | 30457 ft | 421 kts | 254° |
| 2026-05-04 22:37 | 43.47470 | 0.02969 | 31036 ft | 423 kts | 254° |
| 2026-05-04 22:37 | 43.46817 | -0.00987 | 31566 ft | 426 kts | 255° |
| 2026-05-04 22:38 | 43.46390 | -0.05060 | 32089 ft | 432 kts | 261° |
| 2026-05-04 22:38 | 43.46083 | -0.09203 | 32578 ft | 436 kts | 260° |
| 2026-05-04 22:38 | 43.45762 | -0.13375 | 33105 ft | 439 kts | 260° |
| 2026-05-04 22:38 | 43.45433 | -0.17561 | 33604 ft | 442 kts | 260° |
| 2026-05-04 22:39 | 43.45099 | -0.21780 | 34092 ft | 446 kts | 260° |
| 2026-05-04 22:39 | 43.44758 | -0.26053 | 34511 ft | 449 kts | 260° |
| 2026-05-04 22:39 | 43.44415 | -0.30345 | 34949 ft | 452 kts | 260° |
| 2026-05-04 22:39 | 43.44073 | -0.34604 | 35477 ft | 453 kts | 261° |
| 2026-05-04 22:40 | 43.43725 | -0.38901 | 36051 ft | 453 kts | 261° |
| 2026-05-04 22:40 | 43.43376 | -0.43219 | 36623 ft | 453 kts | 261° |
| 2026-05-04 22:40 | 43.43025 | -0.47517 | 37186 ft | 452 kts | 261° |
| 2026-05-04 22:40 | 43.42673 | -0.51815 | 37758 ft | 452 kts | 261° |
| 2026-05-04 22:41 | 43.42320 | -0.56114 | 38307 ft | 452 kts | 261° |
| 2026-05-04 22:41 | 43.41966 | -0.60391 | 38825 ft | 452 kts | 261° |
| 2026-05-04 22:41 | 43.41608 | -0.64705 | 39255 ft | 452 kts | 261° |
| 2026-05-04 22:41 | 43.41248 | -0.69005 | 39663 ft | 452 kts | 261° |
| 2026-05-04 22:42 | 43.40886 | -0.73315 | 40066 ft | 453 kts | 261° |
| 2026-05-04 22:42 | 43.40528 | -0.77569 | 40445 ft | 454 kts | 261° |
| 2026-05-04 22:42 | 43.40163 | -0.81880 | 40828 ft | 454 kts | 261° |
| 2026-05-04 22:42 | 43.39793 | -0.86220 | 41004 ft | 460 kts | 261° |
| 2026-05-04 22:43 | 43.39422 | -0.90570 | 41035 ft | 456 kts | 261° |
| 2026-05-04 22:43 | 43.38678 | -0.99223 | 41034 ft | 456 kts | 261° |
| 2026-05-04 22:44 | 43.37925 | -1.07900 | 41036 ft | 457 kts | 261° |
| 2026-05-04 22:44 | 43.37165 | -1.16586 | 41035 ft | 457 kts | 261° |
| 2026-05-04 22:45 | 43.36399 | -1.25255 | 41030 ft | 457 kts | 261° |
| 2026-05-04 22:45 | 43.35240 | -1.38223 | 41021 ft | 456 kts | 261° |
| 2026-05-04 22:46 | 43.34466 | -1.46804 | 41016 ft | 455 kts | 261° |
| 2026-05-04 22:46 | 43.33680 | -1.55434 | 41016 ft | 455 kts | 261° |
| 2026-05-04 22:47 | 43.32886 | -1.64072 | 41039 ft | 455 kts | 261° |
| 2026-05-04 22:47 | 43.32080 | -1.72684 | 41036 ft | 454 kts | 259° |
| 2026-05-04 22:48 | 43.30471 | -1.81036 | 41032 ft | 452 kts | 248° |
| 2026-05-04 22:48 | 43.27742 | -1.88789 | 41033 ft | 451 kts | 238° |
| 2026-05-04 22:49 | 43.24077 | -1.95760 | 41032 ft | 451 kts | 233° |
| 2026-05-04 22:49 | 43.20319 | -2.02583 | 41032 ft | 451 kts | 233° |
| 2026-05-04 22:50 | 43.17149 | -2.08325 | 41032 ft | 451 kts | 233° |
| 2026-05-04 22:50 | 43.12735 | -2.16279 | 41034 ft | 451 kts | 233° |
| 2026-05-04 22:51 | 43.09571 | -2.21964 | 41032 ft | 451 kts | 233° |
| 2026-05-04 22:51 | 43.05759 | -2.28796 | 41037 ft | 452 kts | 233° |
| 2026-05-04 22:52 | 43.01943 | -2.35620 | 41037 ft | 452 kts | 233° |
| 2026-05-04 22:52 | 42.98121 | -2.42441 | 41036 ft | 452 kts | 233° |
| 2026-05-04 22:53 | 42.94294 | -2.49255 | 41039 ft | 452 kts | 233° |
| 2026-05-04 22:53 | 42.90466 | -2.56054 | 41042 ft | 452 kts | 233° |
| 2026-05-04 22:54 | 42.86632 | -2.62850 | 41042 ft | 452 kts | 233° |
| 2026-05-04 22:54 | 42.82789 | -2.69644 | 41047 ft | 452 kts | 233° |
| 2026-05-04 22:55 | 42.78971 | -2.76380 | 41047 ft | 452 kts | 233° |
| 2026-05-04 22:55 | 42.75122 | -2.83153 | 41052 ft | 452 kts | 232° |
| 2026-05-04 22:56 | 42.71285 | -2.89929 | 41050 ft | 452 kts | 233° |
| 2026-05-04 22:56 | 42.67504 | -2.96755 | 41051 ft | 452 kts | 233° |
| 2026-05-04 22:57 | 42.63720 | -3.03571 | 41050 ft | 452 kts | 233° |
| 2026-05-04 22:57 | 42.59921 | -3.10378 | 41051 ft | 452 kts | 233° |
| 2026-05-04 22:58 | 42.56140 | -3.17132 | 41045 ft | 452 kts | 233° |
| 2026-05-04 22:58 | 42.52339 | -3.23908 | 41045 ft | 451 kts | 233° |
| 2026-05-04 22:59 | 42.48531 | -3.30680 | 41038 ft | 451 kts | 233° |
| 2026-05-04 22:59 | 42.44720 | -3.37442 | 41031 ft | 451 kts | 233° |
| 2026-05-04 23:00 | 42.40908 | -3.44191 | 41024 ft | 451 kts | 233° |
| 2026-05-04 23:00 | 42.37116 | -3.50890 | 41020 ft | 451 kts | 233° |
| 2026-05-04 23:01 | 42.33300 | -3.57617 | 41019 ft | 451 kts | 233° |
| 2026-05-04 23:01 | 42.29476 | -3.64340 | 41021 ft | 451 kts | 233° |
| 2026-05-04 23:02 | 42.25649 | -3.71056 | 41022 ft | 451 kts | 233° |
| 2026-05-04 23:02 | 42.21818 | -3.77763 | 41027 ft | 451 kts | 233° |
| 2026-05-04 23:03 | 42.17982 | -3.84464 | 41033 ft | 451 kts | 233° |
| 2026-05-04 23:03 | 42.14142 | -3.91158 | 41037 ft | 451 kts | 233° |
| 2026-05-04 23:04 | 42.10300 | -3.97838 | 41042 ft | 451 kts | 233° |
| 2026-05-04 23:04 | 42.06456 | -4.04508 | 41046 ft | 451 kts | 233° |
| 2026-05-04 23:05 | 42.02420 | -4.10966 | 41043 ft | 451 kts | 227° |
| 2026-05-04 23:05 | 41.97834 | -4.16729 | 41046 ft | 452 kts | 222° |
| 2026-05-04 23:06 | 41.93077 | -4.22263 | 41044 ft | 452 kts | 223° |
| 2026-05-04 23:06 | 41.88359 | -4.27779 | 41041 ft | 452 kts | 223° |
| 2026-05-04 23:07 | 41.83617 | -4.33315 | 41042 ft | 452 kts | 223° |
| 2026-05-04 23:07 | 41.78869 | -4.38844 | 41044 ft | 452 kts | 223° |
| 2026-05-04 23:08 | 41.74123 | -4.44360 | 41044 ft | 452 kts | 223° |
| 2026-05-04 23:08 | 41.69365 | -4.49878 | 41043 ft | 452 kts | 223° |
| 2026-05-04 23:09 | 41.64609 | -4.55382 | 41043 ft | 452 kts | 223° |
| 2026-05-04 23:09 | 41.59887 | -4.60836 | 41045 ft | 452 kts | 223° |
| 2026-05-04 23:10 | 41.55137 | -4.66311 | 41047 ft | 451 kts | 223° |
| 2026-05-04 23:10 | 41.50380 | -4.71783 | 41047 ft | 451 kts | 223° |
| 2026-05-04 23:11 | 41.45617 | -4.77252 | 41045 ft | 451 kts | 223° |
| 2026-05-04 23:11 | 41.40851 | -4.82713 | 41044 ft | 451 kts | 223° |
| 2026-05-04 23:12 | 41.36113 | -4.88131 | 41047 ft | 451 kts | 223° |
| 2026-05-04 23:12 | 41.31344 | -4.93573 | 41054 ft | 452 kts | 223° |
| 2026-05-04 23:13 | 41.26562 | -4.99020 | 41057 ft | 452 kts | 223° |
| 2026-05-04 23:13 | 41.21785 | -5.04444 | 41056 ft | 452 kts | 223° |
| 2026-05-04 23:14 | 41.17000 | -5.09868 | 41059 ft | 452 kts | 223° |
| 2026-05-04 23:14 | 41.12217 | -5.15279 | 41060 ft | 452 kts | 223° |
| 2026-05-04 23:15 | 41.07430 | -5.20684 | 41072 ft | 452 kts | 223° |
| 2026-05-04 23:15 | 41.02640 | -5.26082 | 41068 ft | 452 kts | 223° |
| 2026-05-04 23:16 | 40.97880 | -5.31435 | 41050 ft | 452 kts | 223° |
| 2026-05-04 23:16 | 40.93086 | -5.36817 | 41061 ft | 452 kts | 223° |
| 2026-05-04 23:17 | 40.88294 | -5.42185 | 41045 ft | 452 kts | 223° |
| 2026-05-04 23:17 | 40.83492 | -5.47553 | 41048 ft | 452 kts | 223° |
| 2026-05-04 23:18 | 40.78693 | -5.52909 | 41066 ft | 452 kts | 223° |
| 2026-05-04 23:18 | 40.73883 | -5.58265 | 41067 ft | 452 kts | 223° |
| 2026-05-04 23:19 | 40.69080 | -5.63603 | 41080 ft | 452 kts | 223° |
| 2026-05-04 23:19 | 40.64276 | -5.68932 | 41086 ft | 452 kts | 223° |
| 2026-05-04 23:20 | 40.59464 | -5.74260 | 41093 ft | 451 kts | 223° |
| 2026-05-04 23:20 | 40.54655 | -5.79574 | 41094 ft | 451 kts | 223° |
| 2026-05-04 23:21 | 40.49847 | -5.84878 | 41094 ft | 451 kts | 223° |
| 2026-05-04 23:21 | 40.45066 | -5.90143 | 41088 ft | 451 kts | 223° |
| 2026-05-04 23:22 | 40.40240 | -5.95447 | 41089 ft | 451 kts | 223° |
| 2026-05-04 23:22 | 40.35429 | -6.00724 | 41084 ft | 451 kts | 223° |
| 2026-05-04 23:23 | 40.30609 | -6.06001 | 41081 ft | 451 kts | 223° |
| 2026-05-04 23:23 | 40.25815 | -6.11238 | 41077 ft | 451 kts | 223° |
| 2026-05-04 23:24 | 40.20968 | -6.16524 | 41070 ft | 451 kts | 223° |
| 2026-05-04 23:24 | 40.16177 | -6.21740 | 41075 ft | 451 kts | 223° |
| 2026-05-04 23:25 | 40.11350 | -6.26983 | 41070 ft | 451 kts | 223° |
| 2026-05-04 23:25 | 40.06531 | -6.32209 | 41072 ft | 450 kts | 223° |
| 2026-05-04 23:26 | 40.01708 | -6.37429 | 41073 ft | 450 kts | 223° |
| 2026-05-04 23:26 | 39.96886 | -6.42639 | 41061 ft | 450 kts | 223° |
| 2026-05-04 23:27 | 39.94482 | -6.45230 | 40864 ft | 445 kts | 223° |
| 2026-05-04 23:27 | 39.92113 | -6.47781 | 40620 ft | 440 kts | 223° |
| 2026-05-04 23:27 | 39.89763 | -6.50310 | 40386 ft | 438 kts | 223° |
| 2026-05-04 23:27 | 39.87411 | -6.52841 | 40145 ft | 439 kts | 223° |
| 2026-05-04 23:28 | 39.85056 | -6.55373 | 39922 ft | 438 kts | 223° |
| 2026-05-04 23:28 | 39.82705 | -6.57898 | 39684 ft | 437 kts | 223° |
| 2026-05-04 23:28 | 39.80387 | -6.60385 | 39194 ft | 437 kts | 223° |
| 2026-05-04 23:28 | 39.78036 | -6.62905 | 38359 ft | 440 kts | 223° |
| 2026-05-04 23:29 | 39.75667 | -6.65441 | 37358 ft | 442 kts | 224° |
| 2026-05-04 23:29 | 39.73296 | -6.67977 | 36430 ft | 442 kts | 224° |
| 2026-05-04 23:29 | 39.70934 | -6.70498 | 35828 ft | 435 kts | 224° |
| 2026-05-04 23:29 | 39.68612 | -6.72972 | 35059 ft | 430 kts | 224° |
| 2026-05-04 23:30 | 39.66295 | -6.75445 | 34042 ft | 432 kts | 224° |
| 2026-05-04 23:30 | 39.63985 | -6.77908 | 33202 ft | 427 kts | 224° |
| 2026-05-04 23:30 | 39.61715 | -6.80321 | 32672 ft | 416 kts | 224° |
| 2026-05-04 23:30 | 39.59513 | -6.82658 | 32387 ft | 402 kts | 224° |
| 2026-05-04 23:31 | 39.57395 | -6.84904 | 31984 ft | 393 kts | 224° |
| 2026-05-04 23:31 | 39.55295 | -6.87136 | 31455 ft | 387 kts | 224° |
| 2026-05-04 23:31 | 39.53225 | -6.89334 | 30929 ft | 381 kts | 224° |
| 2026-05-04 23:31 | 39.51191 | -6.91493 | 30411 ft | 376 kts | 224° |
| 2026-05-04 23:32 | 39.49177 | -6.93628 | 29860 ft | 371 kts | 225° |
| 2026-05-04 23:32 | 39.47202 | -6.95720 | 29352 ft | 364 kts | 224° |
| 2026-05-04 23:32 | 39.45258 | -6.97775 | 28852 ft | 358 kts | 225° |
| 2026-05-04 23:32 | 39.43347 | -6.99795 | 28371 ft | 352 kts | 225° |
| 2026-05-04 23:33 | 39.41467 | -7.01781 | 27880 ft | 348 kts | 225° |
| 2026-05-04 23:33 | 39.39600 | -7.03754 | 27380 ft | 347 kts | 225° |
| 2026-05-04 23:33 | 39.37727 | -7.05733 | 26906 ft | 347 kts | 225° |
| 2026-05-04 23:33 | 39.35861 | -7.07703 | 26420 ft | 346 kts | 225° |
| 2026-05-04 23:34 | 39.34002 | -7.09662 | 25930 ft | 344 kts | 224° |
| 2026-05-04 23:34 | 39.32151 | -7.11609 | 25453 ft | 342 kts | 224° |
| 2026-05-04 23:34 | 39.30305 | -7.13549 | 24965 ft | 341 kts | 225° |
| 2026-05-04 23:34 | 39.28467 | -7.15481 | 24478 ft | 341 kts | 224° |
| 2026-05-04 23:35 | 39.26632 | -7.17410 | 23993 ft | 339 kts | 224° |
| 2026-05-04 23:35 | 39.24825 | -7.19305 | 23478 ft | 339 kts | 224° |
| 2026-05-04 23:35 | 39.23004 | -7.21215 | 22977 ft | 336 kts | 224° |
| 2026-05-04 23:35 | 39.21135 | -7.23046 | 22478 ft | 338 kts | 219° |
| 2026-05-04 23:36 | 39.19167 | -7.24707 | 21991 ft | 337 kts | 219° |
| 2026-05-04 23:36 | 39.17217 | -7.26364 | 21499 ft | 334 kts | 219° |
| 2026-05-04 23:36 | 39.15283 | -7.28016 | 21000 ft | 334 kts | 219° |
| 2026-05-04 23:36 | 39.13356 | -7.29665 | 20528 ft | 332 kts | 219° |
| 2026-05-04 23:37 | 39.11434 | -7.31307 | 20026 ft | 331 kts | 218° |
| 2026-05-04 23:37 | 39.09520 | -7.32941 | 19532 ft | 329 kts | 218° |
| 2026-05-04 23:37 | 39.07615 | -7.34565 | 19044 ft | 328 kts | 218° |
| 2026-05-04 23:37 | 39.05717 | -7.36182 | 18539 ft | 327 kts | 218° |
| 2026-05-04 23:38 | 39.03823 | -7.37794 | 18018 ft | 326 kts | 218° |
| 2026-05-04 23:38 | 39.01941 | -7.39393 | 17510 ft | 323 kts | 218° |
| 2026-05-04 23:38 | 39.00073 | -7.40980 | 17029 ft | 321 kts | 218° |
| 2026-05-04 23:38 | 38.98216 | -7.42558 | 16541 ft | 319 kts | 218° |
| 2026-05-04 23:39 | 38.96370 | -7.44125 | 16046 ft | 318 kts | 217° |
| 2026-05-04 23:39 | 38.94530 | -7.45686 | 15560 ft | 316 kts | 217° |
| 2026-05-04 23:39 | 38.92721 | -7.47220 | 15077 ft | 315 kts | 217° |
| 2026-05-04 23:39 | 38.90894 | -7.48768 | 14594 ft | 314 kts | 217° |
| 2026-05-04 23:40 | 38.89076 | -7.50308 | 14112 ft | 313 kts | 217° |
| 2026-05-04 23:40 | 38.87265 | -7.51840 | 13594 ft | 311 kts | 217° |
| 2026-05-04 23:40 | 38.85462 | -7.53364 | 13115 ft | 309 kts | 217° |
| 2026-05-04 23:40 | 38.83670 | -7.54878 | 12641 ft | 308 kts | 216° |
| 2026-05-04 23:41 | 38.81881 | -7.56390 | 12147 ft | 307 kts | 216° |
| 2026-05-04 23:41 | 38.80100 | -7.57894 | 11685 ft | 306 kts | 216° |
| 2026-05-04 23:41 | 38.78321 | -7.59395 | 11205 ft | 305 kts | 216° |
| 2026-05-04 23:41 | 38.77148 | -7.60383 | 10890 ft | 306 kts | 216° |
| 2026-05-04 23:42 | 38.75357 | -7.61895 | 10431 ft | 307 kts | 216° |
| 2026-05-04 23:42 | 38.73612 | -7.63362 | 10291 ft | 293 kts | 216° |
| 2026-05-04 23:42 | 38.71935 | -7.64770 | 10096 ft | 286 kts | 216° |
| 2026-05-04 23:42 | 38.70281 | -7.66161 | 9953 ft | 284 kts | 216° |
| 2026-05-04 23:43 | 38.68628 | -7.67552 | 9800 ft | 284 kts | 216° |
| 2026-05-04 23:43 | 38.66971 | -7.68947 | 9558 ft | 286 kts | 216° |
| 2026-05-04 23:43 | 38.65307 | -7.70346 | 9223 ft | 285 kts | 216° |
| 2026-05-04 23:43 | 38.63667 | -7.71721 | 8910 ft | 279 kts | 216° |
| 2026-05-04 23:44 | 38.62058 | -7.73070 | 8579 ft | 273 kts | 216° |
| 2026-05-04 23:44 | 38.60500 | -7.74375 | 8271 ft | 269 kts | 216° |
| 2026-05-04 23:44 | 38.58930 | -7.75691 | 7946 ft | 265 kts | 216° |
| 2026-05-04 23:44 | 38.57415 | -7.76960 | 7624 ft | 262 kts | 216° |
| 2026-05-04 23:45 | 38.55905 | -7.78225 | 7329 ft | 259 kts | 216° |
| 2026-05-04 23:45 | 38.54406 | -7.79480 | 7024 ft | 256 kts | 216° |
| 2026-05-04 23:45 | 38.52920 | -7.80713 | 6720 ft | 254 kts | 213° |
| 2026-05-04 23:45 | 38.51337 | -7.81707 | 6397 ft | 253 kts | 205° |
| 2026-05-04 23:46 | 38.49722 | -7.82580 | 6067 ft | 251 kts | 206° |
| 2026-05-04 23:46 | 38.48123 | -7.83465 | 5763 ft | 250 kts | 206° |
| 2026-05-04 23:46 | 38.46532 | -7.84353 | 5461 ft | 249 kts | 206° |
| 2026-05-04 23:46 | 38.44937 | -7.85247 | 5132 ft | 251 kts | 206° |
| 2026-05-04 23:47 | 38.43335 | -7.86144 | 4734 ft | 253 kts | 206° |
| 2026-05-04 23:47 | 38.41698 | -7.87061 | 4270 ft | 260 kts | 206° |
| 2026-05-04 23:47 | 38.40011 | -7.88004 | 3992 ft | 269 kts | 206° |
| 2026-05-04 23:47 | 38.38265 | -7.88948 | 3709 ft | 274 kts | 201° |
| 2026-05-04 23:48 | 38.36436 | -7.89478 | 3697 ft | 263 kts | 189° |
| 2026-05-04 23:48 | 38.34690 | -7.89698 | 3699 ft | 248 kts | 187° |
| 2026-05-04 23:48 | 38.33023 | -7.89913 | 3700 ft | 234 kts | 188° |
| 2026-05-04 23:48 | 38.31439 | -7.90125 | 3653 ft | 224 kts | 188° |
| 2026-05-04 23:49 | 38.29925 | -7.90324 | 3615 ft | 213 kts | 188° |
| 2026-05-04 23:49 | 38.28501 | -7.90513 | 3520 ft | 194 kts | 188° |
| 2026-05-04 23:49 | 38.27197 | -7.90686 | 3116 ft | 187 kts | 188° |
| 2026-05-04 23:49 | 38.25903 | -7.90859 | 2767 ft | 187 kts | 188° |
| 2026-05-04 23:50 | 38.24624 | -7.91028 | 2704 ft | 180 kts | 188° |
| 2026-05-04 23:50 | 38.23400 | -7.91191 | 2702 ft | 176 kts | 188° |
| 2026-05-04 23:50 | 38.22181 | -7.91352 | 2704 ft | 176 kts | 188° |
| 2026-05-04 23:50 | 38.20963 | -7.91515 | 2703 ft | 175 kts | 188° |
| 2026-05-04 23:51 | 38.19756 | -7.91673 | 2700 ft | 175 kts | 188° |
| 2026-05-04 23:51 | 38.18574 | -7.91829 | 2502 ft | 167 kts | 188° |
| 2026-05-04 23:51 | 38.17462 | -7.91976 | 2279 ft | 155 kts | 188° |
| 2026-05-04 23:51 | 38.16392 | -7.92118 | 2069 ft | 156 kts | 188° |
| 2026-05-04 23:52 | 38.15317 | -7.92258 | 1851 ft | 154 kts | 188° |
| 2026-05-04 23:52 | 38.14254 | -7.92394 | 1660 ft | 152 kts | 188° |
| 2026-05-04 23:52 | 38.13203 | -7.92534 | 1431 ft | 149 kts | 188° |
| 2026-05-04 23:52 | 38.12194 | -7.92662 | 1223 ft | 143 kts | 188° |
| 2026-05-04 23:53 | 38.11223 | -7.92790 | 1032 ft | 139 kts | 189° |
| 2026-05-04 23:53 | 38.10264 | -7.92930 | 843 ft | 138 kts | 189° |
| 2026-05-04 23:53 | 38.09313 | -7.93050 | 668 ft | 135 kts | 189° |
| 2026-05-04 23:53 | 38.08455 | -7.93168 | 638 ft | 104 kts | 187° |
| 2026-05-04 23:54 | 38.07920 | -7.93237 | 642 ft | 49 kts | 186° |
| 2026-05-04 23:54 | 38.07726 | -7.93261 | 633 ft | 22 kts | 185° |
| 2026-05-04 23:54 | 38.07562 | -7.93281 | 635 ft | 25 kts | 185° |
| 2026-05-04 23:54 | 38.07380 | -7.93303 | 640 ft | 27 kts | 185° |
| 2026-05-04 23:55 | 38.07185 | -7.93329 | 637 ft | 29 kts | 187° |
| 2026-05-04 23:55 | 38.06980 | -7.93359 | 634 ft | 28 kts | 186° |
| 2026-05-04 23:55 | 38.06704 | -7.93395 | 640 ft | 11 kts | 186° |
| 2026-05-04 23:56 | 38.06605 | -7.93408 | 634 ft | 17 kts | 186° |
| 2026-05-04 23:56 | 38.06493 | -7.93423 | 635 ft | 16 kts | 186° |
| 2026-05-04 23:56 | 38.06408 | -7.93434 | 635 ft | 10 kts | 195° |
| 2026-05-04 23:56 | 38.06371 | -7.93502 | 639 ft | 12 kts | 263° |
| 2026-05-04 23:57 | 38.06376 | -7.93619 | 631 ft | 14 kts | 275° |
| 2026-05-04 23:57 | 38.06409 | -7.93730 | 641 ft | 14 kts | 316° |
| 2026-05-04 23:57 | 38.06489 | -7.93813 | 643 ft | 14 kts | 321° |
| 2026-05-04 23:57 | 38.06561 | -7.93886 | 641 ft | 9 kts | 321° |
| 2026-05-04 23:58 | 38.06574 | -7.93899 | 641 ft | 0 kts | 321° |
| 2026-05-04 23:58 | 38.06575 | -7.93901 | 641 ft | 1 kts | 322° |
| 2026-05-04 23:59 | 38.06581 | -7.93906 | 640 ft | 1 kts | 322° |
| 2026-05-04 23:59 | 38.06592 | -7.93926 | 643 ft | 2 kts | 284° |
| 2026-05-04 23:59 | 38.06593 | -7.93941 | 640 ft | 2 kts | 256° |
| 2026-05-04 23:59 | 38.06586 | -7.93959 | 641 ft | 0 kts | 242° |
| 2026-05-05 00:00 | 38.06581 | -7.93971 | 640 ft | 2 kts | 238° |
| 2026-05-05 00:00 | 38.06579 | -7.93975 | 640 ft | 1 kts | 237° |
| 2026-05-05 00:00 | 38.06570 | -7.93992 | 643 ft | 1 kts | 235° |
| 2026-05-05 00:00 | 38.06564 | -7.94002 | 643 ft | 0 kts | 236° |